首页
METAR-TAF:

METAR-TAF

机场 :

Sacramento Executive Airport

沙加緬度, 加利福尼亚州, 美国

纬度: 38-30-25N, 经度: 121-29-42W, 海拔: 6米

当前天气观测

该预报发布于45分钟前的00:53 UTC
风速7节,风向西北
温度 27°C
湿度 18%
气压 1012 hPa
能見度: 16.1公里
天空无云

METAR: KSAC 210053Z 32007KT 10SM CLR 27/01 A2987 RMK AO2 SLP115 T02720006

时间: 18:38 (01:38 UTC)

预报

该预报发布于2小时和18分钟前的23:20 UTC
预报有效从21日的 00点(UTC)到 21日的 24点(UTC)
风速12节,风向西北,有时为19节阵风
能見度: 10公里
天空无云
从 21日的 0300点(UTC)
风速6节,风向西
能見度: 10公里
天空无云
从 21日的 1400点(UTC)
风速8节,风向北转西北
能見度: 10公里
天空无云
从 21日的 1700点(UTC)
风速10节,风向北转西北,有时为19节阵风
能見度: 10公里
天空无云

TAF: KSAC 202320Z 2100/2124 32012G19KT P6SM SKC FM210300 27006KT P6SM SKC FM211400 33008KT P6SM SKC FM211700 33010G19KT P6SM SKC

超过4000个机场的气象观测和天气预报(METAR&TAF报告)。

可查询的气象台以黄色和红色小点在地图上表示。

将鼠标移到小点上方,可查看气象台名称。

然后点击查看天气观测和预报。

如需切换地图:点击带黑十字的绿色按钮放大地图;点击带横线的绿色按钮缩小地图;或者点击绿色箭头查看邻近地区的地图。


METAR-TAF: